sensor_id;sensor_type;location;lat;lon;timestamp;P1;durP1;ratioP1;P2;durP2;ratioP2
22565;SDS011;11449;51.330;19.378;2022-09-17T00:03:52;6.33;;;2.52;;
22565;SDS011;11449;51.330;19.378;2022-09-17T00:08:55;6.83;;;2.20;;
22565;SDS011;11449;51.330;19.378;2022-09-17T00:13:57;5.97;;;2.30;;
22565;SDS011;11449;51.330;19.378;2022-09-17T00:18:58;6.37;;;2.25;;
22565;SDS011;11449;51.330;19.378;2022-09-17T00:24:01;2.90;;;2.02;;
22565;SDS011;11449;51.330;19.378;2022-09-17T00:29:03;3.90;;;1.92;;
22565;SDS011;11449;51.330;19.378;2022-09-17T00:34:04;6.60;;;2.05;;
22565;SDS011;11449;51.330;19.378;2022-09-17T00:39:06;4.15;;;1.92;;
22565;SDS011;11449;51.330;19.378;2022-09-17T00:49:27;3.87;;;2.37;;
22565;SDS011;11449;51.330;19.378;2022-09-17T00:54:29;3.17;;;1.95;;
22565;SDS011;11449;51.330;19.378;2022-09-17T00:59:30;3.08;;;1.70;;
22565;SDS011;11449;51.330;19.378;2022-09-17T01:04:32;4.97;;;1.80;;
22565;SDS011;11449;51.330;19.378;2022-09-17T01:40:45;4.75;;;2.27;;
22565;SDS011;11449;51.330;19.378;2022-09-17T01:45:54;5.20;;;1.98;;
22565;SDS011;11449;51.330;19.378;2022-09-17T01:50:55;5.08;;;2.62;;
22565;SDS011;11449;51.330;19.378;2022-09-17T01:55:57;6.10;;;2.47;;
22565;SDS011;11449;51.330;19.378;2022-09-17T02:01:00;7.10;;;2.37;;
22565;SDS011;11449;51.330;19.378;2022-09-17T02:06:04;4.08;;;1.82;;
22565;SDS011;11449;51.330;19.378;2022-09-17T02:11:09;5.35;;;2.20;;
22565;SDS011;11449;51.330;19.378;2022-09-17T02:16:16;3.75;;;2.00;;
22565;SDS011;11449;51.330;19.378;2022-09-17T02:21:14;4.00;;;2.40;;
22565;SDS011;11449;51.330;19.378;2022-09-17T02:26:17;5.92;;;2.52;;
22565;SDS011;11449;51.330;19.378;2022-09-17T02:31:19;4.80;;;2.15;;
22565;SDS011;11449;51.330;19.378;2022-09-17T02:36:20;5.20;;;2.10;;
22565;SDS011;11449;51.330;19.378;2022-09-17T02:41:24;4.85;;;2.20;;
22565;SDS011;11449;51.330;19.378;2022-09-17T02:51:46;8.10;;;2.12;;
22565;SDS011;11449;51.330;19.378;2022-09-17T03:02:06;4.08;;;2.20;;
22565;SDS011;11449;51.330;19.378;2022-09-17T03:07:07;3.62;;;1.80;;
22565;SDS011;11449;51.330;19.378;2022-09-17T03:12:09;3.77;;;2.15;;
22565;SDS011;11449;51.330;19.378;2022-09-17T03:17:10;5.62;;;2.17;;
22565;SDS011;11449;51.330;19.378;2022-09-17T03:22:11;5.78;;;2.20;;
22565;SDS011;11449;51.330;19.378;2022-09-17T03:27:12;3.90;;;1.82;;
22565;SDS011;11449;51.330;19.378;2022-09-17T03:32:13;7.10;;;2.85;;
22565;SDS011;11449;51.330;19.378;2022-09-17T03:37:14;4.28;;;2.45;;
22565;SDS011;11449;51.330;19.378;2022-09-17T03:42:15;7.33;;;2.50;;
22565;SDS011;11449;51.330;19.378;2022-09-17T03:47:16;5.25;;;2.22;;
22565;SDS011;11449;51.330;19.378;2022-09-17T03:52:17;6.08;;;2.10;;
22565;SDS011;11449;51.330;19.378;2022-09-17T03:57:18;4.47;;;1.90;;
22565;SDS011;11449;51.330;19.378;2022-09-17T04:02:19;5.15;;;2.10;;
22565;SDS011;11449;51.330;19.378;2022-09-17T04:07:20;4.05;;;2.15;;
22565;SDS011;11449;51.330;19.378;2022-09-17T04:12:21;3.45;;;2.17;;
22565;SDS011;11449;51.330;19.378;2022-09-17T04:17:22;5.87;;;2.02;;
22565;SDS011;11449;51.330;19.378;2022-09-17T04:22:23;2.22;;;1.95;;
22565;SDS011;11449;51.330;19.378;2022-09-17T04:27:24;6.15;;;2.22;;
22565;SDS011;11449;51.330;19.378;2022-09-17T04:32:24;5.75;;;2.20;;
22565;SDS011;11449;51.330;19.378;2022-09-17T04:37:25;6.25;;;2.37;;
22565;SDS011;11449;51.330;19.378;2022-09-17T04:42:26;21.82;;;10.48;;
22565;SDS011;11449;51.330;19.378;2022-09-17T04:47:27;10.32;;;4.65;;
22565;SDS011;11449;51.330;19.378;2022-09-17T04:52:28;5.72;;;2.65;;
22565;SDS011;11449;51.330;19.378;2022-09-17T04:57:29;8.23;;;3.08;;
22565;SDS011;11449;51.330;19.378;2022-09-17T05:02:30;5.25;;;2.92;;
22565;SDS011;11449;51.330;19.378;2022-09-17T05:07:31;6.30;;;2.95;;
22565;SDS011;11449;51.330;19.378;2022-09-17T05:12:32;6.72;;;3.10;;
22565;SDS011;11449;51.330;19.378;2022-09-17T05:17:33;5.42;;;3.50;;
22565;SDS011;11449;51.330;19.378;2022-09-17T05:22:38;5.17;;;2.80;;
22565;SDS011;11449;51.330;19.378;2022-09-17T05:27:38;3.10;;;2.58;;
22565;SDS011;11449;51.330;19.378;2022-09-17T05:32:39;3.98;;;2.70;;
22565;SDS011;11449;51.330;19.378;2022-09-17T05:37:40;4.95;;;2.70;;
22565;SDS011;11449;51.330;19.378;2022-09-17T05:42:41;9.50;;;4.00;;
22565;SDS011;11449;51.330;19.378;2022-09-17T05:47:42;6.28;;;2.87;;
22565;SDS011;11449;51.330;19.378;2022-09-17T05:52:43;6.05;;;2.70;;
22565;SDS011;11449;51.330;19.378;2022-09-17T05:57:44;5.15;;;3.02;;
22565;SDS011;11449;51.330;19.378;2022-09-17T06:02:45;6.25;;;2.80;;
22565;SDS011;11449;51.330;19.378;2022-09-17T06:07:46;6.35;;;3.08;;
22565;SDS011;11449;51.330;19.378;2022-09-17T06:12:47;6.55;;;2.60;;
22565;SDS011;11449;51.330;19.378;2022-09-17T06:17:48;3.98;;;2.92;;
22565;SDS011;11449;51.330;19.378;2022-09-17T06:22:48;5.50;;;2.77;;
22565;SDS011;11449;51.330;19.378;2022-09-17T06:27:51;4.22;;;2.85;;
22565;SDS011;11449;51.330;19.378;2022-09-17T06:32:52;6.83;;;2.95;;
22565;SDS011;11449;51.330;19.378;2022-09-17T06:37:53;9.03;;;3.27;;
22565;SDS011;11449;51.330;19.378;2022-09-17T06:42:57;9.15;;;3.20;;
22565;SDS011;11449;51.330;19.378;2022-09-17T06:48:02;9.03;;;2.60;;
22565;SDS011;11449;51.330;19.378;2022-09-17T06:53:02;7.85;;;3.42;;
22565;SDS011;11449;51.330;19.378;2022-09-17T06:58:03;4.15;;;2.77;;
22565;SDS011;11449;51.330;19.378;2022-09-17T07:03:03;6.15;;;3.55;;
22565;SDS011;11449;51.330;19.378;2022-09-17T07:08:04;8.58;;;2.92;;
22565;SDS011;11449;51.330;19.378;2022-09-17T07:13:05;6.92;;;4.67;;
22565;SDS011;11449;51.330;19.378;2022-09-17T07:18:07;10.05;;;6.12;;
22565;SDS011;11449;51.330;19.378;2022-09-17T07:23:08;6.35;;;3.37;;
22565;SDS011;11449;51.330;19.378;2022-09-17T07:28:09;5.60;;;2.62;;
22565;SDS011;11449;51.330;19.378;2022-09-17T07:33:10;6.47;;;3.40;;
22565;SDS011;11449;51.330;19.378;2022-09-17T07:38:11;6.12;;;2.70;;
22565;SDS011;11449;51.330;19.378;2022-09-17T07:43:11;3.70;;;2.30;;
22565;SDS011;11449;51.330;19.378;2022-09-17T07:48:14;6.78;;;4.55;;
22565;SDS011;11449;51.330;19.378;2022-09-17T07:53:15;7.80;;;3.92;;
22565;SDS011;11449;51.330;19.378;2022-09-17T07:58:16;4.37;;;3.00;;
22565;SDS011;11449;51.330;19.378;2022-09-17T08:03:17;4.28;;;2.70;;
22565;SDS011;11449;51.330;19.378;2022-09-17T08:08:18;10.48;;;5.85;;
22565;SDS011;11449;51.330;19.378;2022-09-17T08:13:19;5.78;;;2.80;;
22565;SDS011;11449;51.330;19.378;2022-09-17T08:18:20;8.78;;;4.85;;
22565;SDS011;11449;51.330;19.378;2022-09-17T08:23:20;6.90;;;4.35;;
22565;SDS011;11449;51.330;19.378;2022-09-17T08:28:22;9.28;;;4.80;;
22565;SDS011;11449;51.330;19.378;2022-09-17T08:33:24;7.10;;;4.30;;
22565;SDS011;11449;51.330;19.378;2022-09-17T08:38:25;6.15;;;3.45;;
22565;SDS011;11449;51.330;19.378;2022-09-17T08:43:26;2.62;;;2.40;;
22565;SDS011;11449;51.330;19.378;2022-09-17T08:48:30;4.78;;;2.62;;
22565;SDS011;11449;51.330;19.378;2022-09-17T08:53:47;3.35;;;2.42;;
22565;SDS011;11449;51.330;19.378;2022-09-17T08:58:55;7.45;;;3.37;;
22565;SDS011;11449;51.330;19.378;2022-09-17T09:09:04;3.27;;;2.25;;
22565;SDS011;11449;51.330;19.378;2022-09-17T09:14:21;3.02;;;2.17;;
22565;SDS011;11449;51.330;19.378;2022-09-17T09:19:36;4.53;;;2.87;;
22565;SDS011;11449;51.330;19.378;2022-09-17T09:24:35;4.28;;;2.58;;
22565;SDS011;11449;51.330;19.378;2022-09-17T09:34:37;3.77;;;2.65;;
22565;SDS011;11449;51.330;19.378;2022-09-17T09:39:38;10.23;;;4.25;;
22565;SDS011;11449;51.330;19.378;2022-09-17T09:44:40;2.65;;;2.05;;
22565;SDS011;11449;51.330;19.378;2022-09-17T10:05:22;6.37;;;3.30;;
22565;SDS011;11449;51.330;19.378;2022-09-17T10:10:23;3.75;;;2.58;;
22565;SDS011;11449;51.330;19.378;2022-09-17T10:15:25;6.35;;;2.90;;
22565;SDS011;11449;51.330;19.378;2022-09-17T10:20:26;4.22;;;3.02;;
22565;SDS011;11449;51.330;19.378;2022-09-17T10:25:28;5.83;;;2.80;;
22565;SDS011;11449;51.330;19.378;2022-09-17T10:30:30;4.15;;;3.02;;
22565;SDS011;11449;51.330;19.378;2022-09-17T10:35:32;3.62;;;2.70;;
22565;SDS011;11449;51.330;19.378;2022-09-17T10:40:33;5.75;;;3.12;;
22565;SDS011;11449;51.330;19.378;2022-09-17T10:45:34;5.53;;;2.70;;
22565;SDS011;11449;51.330;19.378;2022-09-17T10:50:37;6.00;;;3.85;;
22565;SDS011;11449;51.330;19.378;2022-09-17T11:06:05;9.05;;;4.05;;
22565;SDS011;11449;51.330;19.378;2022-09-17T11:16:38;10.03;;;3.92;;
22565;SDS011;11449;51.330;19.378;2022-09-17T11:21:38;11.50;;;4.65;;
22565;SDS011;11449;51.330;19.378;2022-09-17T11:27:02;10.43;;;4.25;;
22565;SDS011;11449;51.330;19.378;2022-09-17T11:37:11;6.40;;;3.45;;
22565;SDS011;11449;51.330;19.378;2022-09-17T11:42:13;8.95;;;4.42;;
22565;SDS011;11449;51.330;19.378;2022-09-17T11:47:19;7.65;;;4.05;;
22565;SDS011;11449;51.330;19.378;2022-09-17T11:52:25;7.37;;;3.92;;
22565;SDS011;11449;51.330;19.378;2022-09-17T11:57:26;7.62;;;3.60;;
22565;SDS011;11449;51.330;19.378;2022-09-17T12:07:55;15.85;;;5.80;;
22565;SDS011;11449;51.330;19.378;2022-09-17T12:12:58;9.28;;;4.35;;
22565;SDS011;11449;51.330;19.378;2022-09-17T12:23:09;9.30;;;4.25;;
22565;SDS011;11449;51.330;19.378;2022-09-17T12:28:14;9.38;;;4.80;;
22565;SDS011;11449;51.330;19.378;2022-09-17T12:33:15;10.75;;;5.97;;
22565;SDS011;11449;51.330;19.378;2022-09-17T13:25:21;14.38;;;6.95;;
22565;SDS011;11449;51.330;19.378;2022-09-17T13:30:22;23.75;;;11.70;;
22565;SDS011;11449;51.330;19.378;2022-09-17T13:40:27;65.52;;;53.98;;
22565;SDS011;11449;51.330;19.378;2022-09-17T13:45:28;16.93;;;10.35;;
22565;SDS011;11449;51.330;19.378;2022-09-17T13:50:32;15.63;;;8.00;;
22565;SDS011;11449;51.330;19.378;2022-09-17T13:55:35;26.15;;;10.72;;
22565;SDS011;11449;51.330;19.378;2022-09-17T14:11:00;12.03;;;5.75;;
22565;SDS011;11449;51.330;19.378;2022-09-17T14:16:21;14.18;;;6.28;;
22565;SDS011;11449;51.330;19.378;2022-09-17T14:21:05;11.28;;;5.55;;
22565;SDS011;11449;51.330;19.378;2022-09-17T14:26:07;9.55;;;4.78;;
22565;SDS011;11449;51.330;19.378;2022-09-17T14:31:12;10.32;;;4.95;;
22565;SDS011;11449;51.330;19.378;2022-09-17T14:36:15;14.10;;;5.53;;
22565;SDS011;11449;51.330;19.378;2022-09-17T14:41:19;17.73;;;6.50;;
22565;SDS011;11449;51.330;19.378;2022-09-17T14:46:24;9.90;;;4.92;;
22565;SDS011;11449;51.330;19.378;2022-09-17T14:51:26;13.32;;;5.45;;
22565;SDS011;11449;51.330;19.378;2022-09-17T14:56:28;12.65;;;5.62;;
22565;SDS011;11449;51.330;19.378;2022-09-17T15:01:29;14.03;;;6.62;;
22565;SDS011;11449;51.330;19.378;2022-09-17T15:06:30;16.62;;;7.53;;
22565;SDS011;11449;51.330;19.378;2022-09-17T15:11:35;17.67;;;7.37;;
22565;SDS011;11449;51.330;19.378;2022-09-17T15:16:38;14.50;;;6.20;;
22565;SDS011;11449;51.330;19.378;2022-09-17T15:21:40;24.18;;;10.15;;
22565;SDS011;11449;51.330;19.378;2022-09-17T15:26:42;17.70;;;7.85;;
22565;SDS011;11449;51.330;19.378;2022-09-17T15:31:44;16.77;;;7.12;;
22565;SDS011;11449;51.330;19.378;2022-09-17T15:37:04;22.65;;;8.35;;
22565;SDS011;11449;51.330;19.378;2022-09-17T15:42:15;22.70;;;8.40;;
22565;SDS011;11449;51.330;19.378;2022-09-17T15:52:29;17.20;;;10.48;;
22565;SDS011;11449;51.330;19.378;2022-09-17T15:57:32;16.32;;;9.68;;
22565;SDS011;11449;51.330;19.378;2022-09-17T16:02:34;28.10;;;15.45;;
22565;SDS011;11449;51.330;19.378;2022-09-17T16:07:35;11.40;;;6.70;;
22565;SDS011;11449;51.330;19.378;2022-09-17T16:12:36;20.15;;;13.05;;
22565;SDS011;11449;51.330;19.378;2022-09-17T16:17:46;26.87;;;16.30;;
22565;SDS011;11449;51.330;19.378;2022-09-17T16:22:49;15.08;;;10.58;;
22565;SDS011;11449;51.330;19.378;2022-09-17T16:27:55;11.53;;;7.62;;
22565;SDS011;11449;51.330;19.378;2022-09-17T16:32:56;8.80;;;5.85;;
22565;SDS011;11449;51.330;19.378;2022-09-17T16:37:58;10.90;;;6.53;;
22565;SDS011;11449;51.330;19.378;2022-09-17T16:42:59;16.30;;;8.90;;
22565;SDS011;11449;51.330;19.378;2022-09-17T16:48:02;23.38;;;10.82;;
22565;SDS011;11449;51.330;19.378;2022-09-17T16:53:03;19.85;;;10.13;;
22565;SDS011;11449;51.330;19.378;2022-09-17T16:58:04;13.10;;;7.30;;
22565;SDS011;11449;51.330;19.378;2022-09-17T17:03:05;19.55;;;10.40;;
22565;SDS011;11449;51.330;19.378;2022-09-17T17:08:06;13.93;;;8.13;;
22565;SDS011;11449;51.330;19.378;2022-09-17T17:13:08;21.42;;;10.10;;
22565;SDS011;11449;51.330;19.378;2022-09-17T17:18:09;18.55;;;9.43;;
22565;SDS011;11449;51.330;19.378;2022-09-17T17:23:10;15.70;;;9.83;;
22565;SDS011;11449;51.330;19.378;2022-09-17T17:28:12;11.33;;;9.13;;
22565;SDS011;11449;51.330;19.378;2022-09-17T17:33:14;22.58;;;16.57;;
22565;SDS011;11449;51.330;19.378;2022-09-17T17:38:16;20.90;;;12.47;;
22565;SDS011;11449;51.330;19.378;2022-09-17T17:43:17;20.88;;;12.63;;
22565;SDS011;11449;51.330;19.378;2022-09-17T17:48:18;25.05;;;14.38;;
22565;SDS011;11449;51.330;19.378;2022-09-17T17:53:18;18.67;;;12.13;;
22565;SDS011;11449;51.330;19.378;2022-09-17T17:58:19;20.70;;;12.40;;
22565;SDS011;11449;51.330;19.378;2022-09-17T18:03:20;15.98;;;10.60;;
22565;SDS011;11449;51.330;19.378;2022-09-17T18:08:24;20.08;;;10.80;;
22565;SDS011;11449;51.330;19.378;2022-09-17T18:13:25;16.90;;;10.03;;
22565;SDS011;11449;51.330;19.378;2022-09-17T18:18:37;15.70;;;10.05;;
22565;SDS011;11449;51.330;19.378;2022-09-17T18:23:39;15.13;;;9.78;;
22565;SDS011;11449;51.330;19.378;2022-09-17T18:28:37;14.18;;;9.43;;
22565;SDS011;11449;51.330;19.378;2022-09-17T18:33:38;10.53;;;8.25;;
22565;SDS011;11449;51.330;19.378;2022-09-17T18:38:39;10.40;;;7.72;;
22565;SDS011;11449;51.330;19.378;2022-09-17T18:43:40;8.60;;;6.50;;
22565;SDS011;11449;51.330;19.378;2022-09-17T18:48:42;9.20;;;6.40;;
22565;SDS011;11449;51.330;19.378;2022-09-17T18:53:44;10.13;;;6.65;;
22565;SDS011;11449;51.330;19.378;2022-09-17T18:58:45;9.20;;;6.58;;
22565;SDS011;11449;51.330;19.378;2022-09-17T19:03:47;10.40;;;6.42;;
22565;SDS011;11449;51.330;19.378;2022-09-17T19:08:47;11.08;;;8.13;;
22565;SDS011;11449;51.330;19.378;2022-09-17T19:13:50;11.33;;;7.75;;
22565;SDS011;11449;51.330;19.378;2022-09-17T19:18:51;13.03;;;8.83;;
22565;SDS011;11449;51.330;19.378;2022-09-17T19:23:52;14.00;;;8.45;;
22565;SDS011;11449;51.330;19.378;2022-09-17T19:28:54;11.93;;;7.85;;
22565;SDS011;11449;51.330;19.378;2022-09-17T19:33:55;13.22;;;7.85;;
22565;SDS011;11449;51.330;19.378;2022-09-17T19:38:56;13.85;;;8.53;;
22565;SDS011;11449;51.330;19.378;2022-09-17T19:43:58;15.32;;;8.75;;
22565;SDS011;11449;51.330;19.378;2022-09-17T19:48:59;12.28;;;6.78;;
22565;SDS011;11449;51.330;19.378;2022-09-17T19:54:01;8.70;;;6.42;;
22565;SDS011;11449;51.330;19.378;2022-09-17T19:59:02;9.98;;;5.58;;
22565;SDS011;11449;51.330;19.378;2022-09-17T20:04:03;7.55;;;5.08;;
22565;SDS011;11449;51.330;19.378;2022-09-17T20:09:04;8.20;;;5.28;;
22565;SDS011;11449;51.330;19.378;2022-09-17T20:14:05;11.08;;;5.10;;
22565;SDS011;11449;51.330;19.378;2022-09-17T20:19:07;7.17;;;4.62;;
22565;SDS011;11449;51.330;19.378;2022-09-17T20:24:08;6.60;;;4.35;;
22565;SDS011;11449;51.330;19.378;2022-09-17T20:29:08;9.60;;;5.17;;
22565;SDS011;11449;51.330;19.378;2022-09-17T20:34:10;7.87;;;4.80;;
22565;SDS011;11449;51.330;19.378;2022-09-17T20:39:11;12.00;;;4.87;;
22565;SDS011;11449;51.330;19.378;2022-09-17T20:44:12;9.13;;;4.92;;
22565;SDS011;11449;51.330;19.378;2022-09-17T20:49:14;7.87;;;4.12;;
22565;SDS011;11449;51.330;19.378;2022-09-17T20:54:14;7.17;;;4.47;;
22565;SDS011;11449;51.330;19.378;2022-09-17T20:59:15;7.35;;;4.67;;
22565;SDS011;11449;51.330;19.378;2022-09-17T21:04:18;10.20;;;5.15;;
22565;SDS011;11449;51.330;19.378;2022-09-17T21:09:20;11.55;;;5.28;;
22565;SDS011;11449;51.330;19.378;2022-09-17T21:14:21;15.05;;;7.28;;
22565;SDS011;11449;51.330;19.378;2022-09-17T21:19:23;13.83;;;7.10;;
22565;SDS011;11449;51.330;19.378;2022-09-17T21:24:25;11.53;;;5.70;;
22565;SDS011;11449;51.330;19.378;2022-09-17T21:29:25;9.45;;;5.50;;
22565;SDS011;11449;51.330;19.378;2022-09-17T21:34:26;8.88;;;5.47;;
22565;SDS011;11449;51.330;19.378;2022-09-17T21:39:28;6.87;;;4.30;;
22565;SDS011;11449;51.330;19.378;2022-09-17T21:44:28;12.05;;;4.22;;
22565;SDS011;11449;51.330;19.378;2022-09-17T21:49:29;9.85;;;4.17;;
22565;SDS011;11449;51.330;19.378;2022-09-17T21:54:30;11.35;;;3.92;;
22565;SDS011;11449;51.330;19.378;2022-09-17T21:59:31;9.80;;;3.83;;
22565;SDS011;11449;51.330;19.378;2022-09-17T22:04:32;11.97;;;3.42;;
22565;SDS011;11449;51.330;19.378;2022-09-17T22:09:33;8.68;;;3.25;;
22565;SDS011;11449;51.330;19.378;2022-09-17T22:14:34;8.28;;;3.27;;
22565;SDS011;11449;51.330;19.378;2022-09-17T22:19:35;8.73;;;3.42;;
22565;SDS011;11449;51.330;19.378;2022-09-17T22:24:36;9.50;;;3.45;;
22565;SDS011;11449;51.330;19.378;2022-09-17T22:29:38;5.60;;;3.10;;
22565;SDS011;11449;51.330;19.378;2022-09-17T22:34:38;5.78;;;2.65;;
22565;SDS011;11449;51.330;19.378;2022-09-17T22:39:39;6.58;;;3.30;;
22565;SDS011;11449;51.330;19.378;2022-09-17T22:44:40;5.53;;;2.83;;
22565;SDS011;11449;51.330;19.378;2022-09-17T22:49:41;7.83;;;2.85;;
22565;SDS011;11449;51.330;19.378;2022-09-17T22:54:42;10.43;;;3.22;;
22565;SDS011;11449;51.330;19.378;2022-09-17T22:59:43;6.40;;;2.95;;
22565;SDS011;11449;51.330;19.378;2022-09-17T23:04:43;6.62;;;2.83;;
22565;SDS011;11449;51.330;19.378;2022-09-17T23:09:44;8.20;;;3.10;;
22565;SDS011;11449;51.330;19.378;2022-09-17T23:14:45;9.28;;;3.33;;
22565;SDS011;11449;51.330;19.378;2022-09-17T23:19:46;7.62;;;2.67;;
22565;SDS011;11449;51.330;19.378;2022-09-17T23:24:47;5.67;;;2.95;;
22565;SDS011;11449;51.330;19.378;2022-09-17T23:29:49;14.70;;;6.10;;
22565;SDS011;11449;51.330;19.378;2022-09-17T23:34:50;8.18;;;3.80;;
22565;SDS011;11449;51.330;19.378;2022-09-17T23:39:51;6.87;;;3.27;;
22565;SDS011;11449;51.330;19.378;2022-09-17T23:44:52;10.43;;;3.75;;
22565;SDS011;11449;51.330;19.378;2022-09-17T23:49:53;8.83;;;3.50;;
22565;SDS011;11449;51.330;19.378;2022-09-17T23:54:54;9.80;;;3.58;;
22565;SDS011;11449;51.330;19.378;2022-09-17T23:59:55;7.75;;;3.30;;
